createdAt,value
2022-12-08T00:00:17.439Z,952.76
2022-12-08T00:01:17.285Z,952.73
2022-12-08T00:02:17.372Z,952.73
2022-12-08T00:03:17.477Z,952.74
2022-12-08T00:04:17.285Z,952.72
2022-12-08T00:05:17.464Z,952.71
2022-12-08T00:06:17.456Z,952.75
2022-12-08T00:07:17.208Z,952.79
2022-12-08T00:08:17.275Z,952.76
2022-12-08T00:09:17.169Z,952.77
2022-12-08T00:10:47.142Z,952.77
2022-12-08T00:11:18.308Z,952.73
2022-12-08T00:12:17.485Z,952.75
2022-12-08T00:13:17.113Z,952.72
2022-12-08T00:14:17.128Z,952.70
2022-12-08T00:15:17.084Z,952.67
2022-12-08T00:16:17.123Z,952.69
2022-12-08T00:17:17.106Z,952.69
2022-12-08T00:18:17.137Z,952.66
2022-12-08T00:19:17.051Z,952.64
2022-12-08T00:20:17.045Z,952.66
2022-12-08T00:21:16.992Z,952.63
2022-12-08T00:22:17.003Z,952.60
2022-12-08T00:23:17.065Z,952.61
2022-12-08T00:24:17.203Z,952.61
2022-12-08T00:25:16.948Z,952.63
2022-12-08T00:26:17.073Z,952.59
2022-12-08T00:27:16.920Z,952.62
2022-12-08T00:28:16.929Z,952.57
2022-12-08T00:29:17.650Z,952.55
2022-12-08T00:30:17.032Z,952.50
2022-12-08T00:31:16.898Z,952.54
2022-12-08T00:32:16.927Z,952.50
2022-12-08T00:33:16.838Z,952.50
2022-12-08T00:34:16.848Z,952.47
2022-12-08T00:35:16.859Z,952.48
2022-12-08T00:36:16.902Z,952.45
2022-12-08T00:37:16.782Z,952.45
2022-12-08T00:38:16.788Z,952.43
2022-12-08T00:39:16.768Z,952.43
2022-12-08T00:40:16.757Z,952.48
2022-12-08T00:41:16.767Z,952.44
2022-12-08T00:42:16.860Z,952.43
2022-12-08T00:43:16.720Z,952.44
2022-12-08T00:44:16.706Z,952.43
2022-12-08T00:45:16.676Z,952.41
2022-12-08T00:46:16.774Z,952.49
2022-12-08T00:47:19.876Z,952.45
2022-12-08T00:48:17.729Z,952.43
2022-12-08T00:49:16.604Z,952.43
2022-12-08T00:50:16.643Z,952.44
2022-12-08T00:51:16.613Z,952.40
2022-12-08T00:52:16.594Z,952.42
2022-12-08T00:53:16.827Z,952.44
2022-12-08T00:54:16.658Z,952.40
2022-12-08T00:55:16.563Z,952.39
2022-12-08T00:56:16.542Z,952.40
2022-12-08T00:57:16.497Z,952.39
2022-12-08T00:58:16.511Z,952.38
2022-12-08T00:59:16.516Z,952.41
2022-12-08T01:00:16.662Z,952.40
2022-12-08T01:01:16.605Z,952.38
2022-12-08T01:02:16.462Z,952.40
2022-12-08T01:03:16.456Z,952.37
2022-12-08T01:04:16.426Z,952.36
2022-12-08T01:05:16.452Z,952.35
2022-12-08T01:06:16.552Z,952.34
2022-12-08T01:07:16.350Z,952.31
2022-12-08T01:08:16.467Z,952.32
2022-12-08T01:09:16.335Z,952.34
2022-12-08T01:10:16.354Z,952.35
2022-12-08T01:11:16.346Z,952.35
2022-12-08T01:12:16.414Z,952.36
2022-12-08T01:13:16.284Z,952.38
2022-12-08T01:14:16.288Z,952.35
2022-12-08T01:15:16.246Z,952.34
2022-12-08T01:16:16.292Z,952.40
2022-12-08T01:17:16.394Z,952.37
2022-12-08T01:18:16.306Z,952.38
2022-12-08T01:19:16.219Z,952.37
2022-12-08T01:20:16.212Z,952.38
2022-12-08T01:21:16.157Z,952.38
2022-12-08T01:22:16.184Z,952.38
2022-12-08T01:23:16.201Z,952.42
2022-12-08T01:24:16.277Z,952.41
2022-12-08T01:25:16.112Z,952.36
2022-12-08T01:26:16.132Z,952.37
2022-12-08T01:27:16.077Z,952.37
2022-12-08T01:28:16.091Z,952.36
2022-12-08T01:29:16.086Z,952.33
2022-12-08T01:30:16.215Z,952.35
2022-12-08T01:31:16.088Z,952.35
2022-12-08T01:32:16.054Z,952.36
2022-12-08T01:33:15.988Z,952.39
2022-12-08T01:34:16.006Z,952.38
2022-12-08T01:35:16.005Z,952.39
2022-12-08T01:36:16.051Z,952.39
2022-12-08T01:37:15.951Z,952.37
2022-12-08T01:38:15.947Z,952.36
2022-12-08T01:39:15.910Z,952.33
2022-12-08T01:40:15.941Z,952.32
2022-12-08T01:41:15.917Z,952.32
2022-12-08T01:42:16.053Z,952.32
2022-12-08T01:43:15.860Z,952.32
2022-12-08T01:44:15.887Z,952.30
2022-12-08T01:45:15.878Z,952.35
2022-12-08T01:46:15.921Z,952.33
2022-12-08T01:47:15.891Z,952.35
2022-12-08T01:48:15.947Z,952.38
2022-12-08T01:49:15.777Z,952.36
2022-12-08T01:50:15.819Z,952.33
2022-12-08T01:51:15.742Z,952.30
2022-12-08T01:52:15.763Z,952.28
2022-12-08T01:53:15.777Z,952.22
2022-12-08T01:54:15.919Z,952.20
2022-12-08T01:55:15.681Z,952.22
2022-12-08T01:56:15.694Z,952.23
2022-12-08T01:57:15.658Z,952.23
2022-12-08T01:58:15.664Z,952.23
2022-12-08T01:59:15.678Z,952.19
2022-12-08T02:00:15.861Z,952.24
2022-12-08T02:01:15.694Z,952.23
2022-12-08T02:02:15.666Z,952.23
2022-12-08T02:03:15.577Z,952.22
2022-12-08T02:04:15.607Z,952.23
2022-12-08T02:05:15.589Z,952.21
2022-12-08T02:06:15.640Z,952.15
2022-12-08T02:07:15.529Z,952.19
2022-12-08T02:08:15.575Z,952.17
2022-12-08T02:09:15.490Z,952.14
2022-12-08T02:10:16.473Z,952.14
2022-12-08T02:11:15.721Z,952.08
2022-12-08T02:12:15.562Z,952.16
2022-12-08T02:13:15.431Z,952.08
2022-12-08T02:14:15.443Z,952.10
2022-12-08T02:15:15.400Z,952.10
2022-12-08T02:16:15.522Z,952.08
2022-12-08T02:17:15.450Z,952.06
2022-12-08T02:18:15.479Z,952.06
2022-12-08T02:19:30.881Z,952.08
2022-12-08T02:20:16.365Z,952.08
2022-12-08T02:21:15.334Z,952.03
2022-12-08T02:22:15.330Z,952.05
2022-12-08T02:23:15.379Z,952.06
2022-12-08T02:24:15.444Z,952.00
2022-12-08T02:25:15.259Z,952.01
2022-12-08T02:26:15.292Z,952.01
2022-12-08T02:27:15.252Z,951.99
2022-12-08T02:28:15.274Z,952.02
2022-12-08T02:29:15.281Z,951.97
2022-12-08T02:30:15.302Z,951.96
2022-12-08T02:31:15.269Z,951.99
2022-12-08T02:32:15.200Z,951.93
2022-12-08T02:33:15.153Z,951.91
2022-12-08T02:34:15.165Z,951.88
2022-12-08T02:35:15.149Z,951.87
2022-12-08T02:36:15.254Z,951.89
2022-12-08T02:37:15.109Z,951.88
2022-12-08T02:38:15.094Z,951.84
2022-12-08T02:39:15.058Z,951.84
2022-12-08T02:40:15.140Z,951.85
2022-12-08T02:41:15.073Z,951.84
2022-12-08T02:42:15.197Z,951.84
2022-12-08T02:43:15.023Z,951.86
2022-12-08T02:44:15.028Z,951.81
2022-12-08T02:45:14.979Z,951.82
2022-12-08T02:46:15.042Z,951.81
2022-12-08T02:47:15.001Z,951.82
2022-12-08T02:48:15.100Z,951.81
2022-12-08T02:49:14.936Z,951.79
2022-12-08T02:50:14.946Z,951.78
2022-12-08T02:51:14.920Z,951.79
2022-12-08T02:52:14.912Z,951.76
2022-12-08T02:53:47.645Z,951.73
2022-12-08T02:54:47.273Z,951.71
2022-12-08T02:55:47.427Z,951.73
2022-12-08T02:56:47.265Z,951.70
2022-12-08T02:57:47.368Z,951.65
2022-12-08T02:58:47.269Z,951.62
2022-12-08T02:59:48.354Z,951.62
2022-12-08T03:00:47.205Z,951.60
2022-12-08T03:01:47.618Z,951.60
2022-12-08T03:02:47.197Z,951.56
2022-12-08T03:03:47.342Z,951.55
2022-12-08T03:04:47.178Z,951.53
2022-12-08T03:05:48.291Z,951.54
2022-12-08T03:06:47.151Z,951.49
2022-12-08T03:07:47.259Z,951.56
2022-12-08T03:08:47.146Z,951.48
2022-12-08T03:09:47.477Z,951.50
2022-12-08T03:10:47.163Z,951.52
2022-12-08T03:11:47.306Z,951.47
2022-12-08T03:12:47.055Z,951.52
2022-12-08T03:13:47.526Z,951.48
2022-12-08T03:14:47.099Z,951.49
2022-12-08T03:15:47.161Z,951.42
2022-12-08T03:16:48.022Z,951.41
2022-12-08T03:17:47.497Z,951.44
2022-12-08T03:18:46.967Z,951.41
2022-12-08T03:19:47.154Z,951.40
2022-12-08T03:20:46.960Z,951.43
2022-12-08T03:21:47.023Z,951.41
2022-12-08T03:22:47.008Z,951.36
2022-12-08T03:23:47.154Z,951.36
2022-12-08T03:24:46.948Z,951.33
2022-12-08T03:25:47.181Z,951.31
2022-12-08T03:26:46.825Z,951.29
2022-12-08T03:27:47.913Z,951.29
2022-12-08T03:28:47.009Z,951.25
2022-12-08T03:29:47.224Z,951.27
2022-12-08T03:30:46.821Z,951.24
2022-12-08T03:31:47.580Z,951.29
2022-12-08T03:32:46.769Z,951.26
2022-12-08T03:33:46.923Z,951.25
2022-12-08T03:34:46.765Z,951.26
2022-12-08T03:35:47.121Z,951.24
2022-12-08T03:36:46.703Z,951.26
2022-12-08T03:37:47.834Z,951.24
2022-12-08T03:38:46.676Z,951.19
2022-12-08T03:39:49.520Z,951.21
2022-12-08T03:40:46.699Z,951.15
2022-12-08T03:41:46.919Z,951.19
2022-12-08T03:42:46.597Z,951.10
2022-12-08T03:43:46.823Z,951.11
2022-12-08T03:44:46.602Z,951.09
2022-12-08T03:45:47.355Z,951.06
2022-12-08T03:46:46.609Z,951.09
2022-12-08T03:47:47.536Z,951.11
2022-12-08T03:48:46.534Z,951.06
2022-12-08T03:49:46.685Z,951.05
2022-12-08T03:50:46.541Z,951.07
2022-12-08T03:51:46.638Z,951.07
2022-12-08T03:52:46.500Z,951.02
2022-12-08T03:53:47.388Z,951.04
2022-12-08T03:54:46.454Z,950.97
2022-12-08T03:55:46.588Z,950.95
2022-12-08T03:56:46.521Z,950.99
2022-12-08T03:57:47.208Z,950.97
2022-12-08T03:58:46.455Z,950.95
2022-12-08T03:59:46.715Z,951.02
2022-12-08T04:00:46.388Z,950.97
2022-12-08T04:01:46.595Z,950.97
2022-12-08T04:02:46.444Z,950.96
2022-12-08T04:03:46.841Z,950.96
2022-12-08T04:04:46.348Z,950.94
2022-12-08T04:05:46.837Z,950.91
2022-12-08T04:06:46.289Z,950.91
2022-12-08T04:07:46.790Z,950.94
2022-12-08T04:08:46.266Z,950.97
2022-12-08T04:09:46.422Z,950.89
2022-12-08T04:10:46.280Z,950.93
2022-12-08T04:11:46.656Z,950.93
2022-12-08T04:12:46.219Z,950.92
2022-12-08T04:13:46.974Z,950.91
2022-12-08T04:14:46.207Z,950.87
2022-12-08T04:15:47.273Z,950.87
2022-12-08T04:16:46.216Z,950.85
2022-12-08T04:17:46.408Z,950.86
2022-12-08T04:18:46.145Z,950.84
2022-12-08T04:19:46.970Z,950.79
2022-12-08T04:20:46.126Z,950.84
2022-12-08T04:21:48.871Z,950.78
2022-12-08T04:22:46.645Z,950.76
2022-12-08T04:23:49.114Z,950.79
2022-12-08T04:24:46.063Z,950.78
2022-12-08T04:25:46.790Z,950.75
2022-12-08T04:26:46.042Z,950.77
2022-12-08T04:27:46.903Z,950.75
2022-12-08T04:28:46.030Z,950.73
2022-12-08T04:29:46.216Z,950.70
2022-12-08T04:30:45.989Z,950.75
2022-12-08T04:31:46.171Z,950.81
2022-12-08T04:32:47.606Z,950.76
2022-12-08T04:33:46.756Z,950.75
2022-12-08T04:34:45.985Z,950.76
2022-12-08T04:35:47.865Z,950.77
2022-12-08T04:36:45.896Z,950.78
2022-12-08T04:37:47.219Z,950.70
2022-12-08T04:38:45.861Z,950.70
2022-12-08T04:39:48.712Z,950.72
2022-12-08T04:40:45.871Z,950.68
2022-12-08T04:41:52.700Z,950.69
2022-12-08T04:42:45.819Z,950.70
2022-12-08T04:43:47.089Z,950.70
2022-12-08T04:44:45.793Z,950.68
2022-12-08T04:45:46.639Z,950.72
2022-12-08T04:46:45.839Z,950.77
2022-12-08T04:47:46.718Z,950.73
2022-12-08T04:48:45.730Z,950.71
2022-12-08T04:49:48.486Z,950.73
2022-12-08T04:50:45.711Z,950.71
2022-12-08T04:51:45.966Z,950.71
2022-12-08T04:52:45.734Z,950.71
2022-12-08T04:53:49.026Z,950.67
2022-12-08T04:54:45.647Z,950.69
2022-12-08T04:55:45.695Z,950.66
2022-12-08T04:56:45.751Z,950.69
2022-12-08T04:57:48.391Z,950.67
2022-12-08T04:58:45.633Z,950.69
2022-12-08T04:59:47.099Z,950.70
2022-12-08T05:00:45.604Z,950.70
2022-12-08T05:01:47.062Z,950.68
2022-12-08T05:02:45.627Z,950.68
2022-12-08T05:03:48.467Z,950.68
2022-12-08T05:04:45.550Z,950.69
2022-12-08T05:05:45.724Z,950.66
2022-12-08T05:06:45.493Z,950.70
2022-12-08T05:07:46.948Z,950.70
2022-12-08T05:08:45.490Z,950.66
2022-12-08T05:09:46.716Z,950.70
2022-12-08T05:10:45.477Z,950.68
2022-12-08T05:11:49.023Z,950.68
2022-12-08T05:12:45.429Z,950.65
2022-12-08T05:13:45.472Z,950.69
2022-12-08T05:14:45.383Z,950.67
2022-12-08T05:15:45.588Z,950.71
2022-12-08T05:16:45.455Z,950.71
2022-12-08T05:17:45.962Z,950.67
2022-12-08T05:18:45.300Z,950.67
2022-12-08T05:19:45.373Z,950.70
2022-12-08T05:20:45.294Z,950.65
2022-12-08T05:21:45.421Z,950.69
2022-12-08T05:22:45.306Z,950.69
2022-12-08T05:23:45.539Z,950.67
2022-12-08T05:24:47.624Z,950.70
2022-12-08T05:25:45.289Z,950.67
2022-12-08T05:26:45.193Z,950.67
2022-12-08T05:27:45.292Z,950.69
2022-12-08T05:28:45.198Z,950.66
2022-12-08T05:29:45.542Z,950.67
2022-12-08T05:30:45.139Z,950.65
2022-12-08T05:31:45.327Z,950.68
2022-12-08T05:32:45.104Z,950.70
2022-12-08T05:33:45.282Z,950.68
2022-12-08T05:34:45.133Z,950.65
2022-12-08T05:35:45.347Z,950.70
2022-12-08T05:36:45.074Z,950.62
2022-12-08T05:37:45.113Z,950.64
2022-12-08T05:38:45.055Z,950.64
2022-12-08T05:39:45.128Z,950.63
2022-12-08T05:40:45.093Z,950.61
2022-12-08T05:41:45.410Z,950.60
2022-12-08T05:42:44.993Z,950.57
2022-12-08T05:43:45.296Z,950.58
2022-12-08T05:44:44.959Z,950.57
2022-12-08T05:45:45.086Z,950.59
2022-12-08T05:46:45.041Z,950.54
2022-12-08T05:47:45.065Z,950.53
2022-12-08T05:48:44.906Z,950.45
2022-12-08T05:49:45.040Z,950.44
2022-12-08T05:50:44.900Z,950.46
2022-12-08T05:51:44.932Z,950.51
2022-12-08T05:52:44.899Z,950.53
2022-12-08T05:53:44.943Z,950.53
2022-12-08T05:54:44.835Z,950.53
2022-12-08T05:55:45.042Z,950.47
2022-12-08T05:56:44.795Z,950.53
2022-12-08T05:57:44.794Z,950.54
2022-12-08T05:58:44.789Z,950.53
2022-12-08T05:59:45.196Z,950.55
2022-12-08T06:00:44.732Z,950.58
2022-12-08T06:01:44.793Z,950.59
2022-12-08T06:02:44.847Z,950.62
2022-12-08T06:03:44.799Z,950.65
2022-12-08T06:04:44.726Z,950.66
2022-12-08T06:05:44.891Z,950.68
2022-12-08T06:06:44.657Z,950.73
2022-12-08T06:07:44.875Z,950.70
2022-12-08T06:08:44.618Z,950.71
2022-12-08T06:09:44.641Z,950.69
2022-12-08T06:10:44.655Z,950.70
2022-12-08T06:11:44.667Z,950.68
2022-12-08T06:12:44.584Z,950.68
2022-12-08T06:13:44.667Z,950.65
2022-12-08T06:14:44.546Z,950.65
2022-12-08T06:15:44.627Z,950.66
2022-12-08T06:16:44.612Z,950.71
2022-12-08T06:17:44.627Z,950.64
2022-12-08T06:18:44.520Z,950.68
2022-12-08T06:19:44.496Z,950.67
2022-12-08T06:20:44.453Z,950.63
2022-12-08T06:21:44.602Z,950.68
2022-12-08T06:22:44.474Z,950.71
2022-12-08T06:23:44.552Z,950.70
2022-12-08T06:24:44.395Z,950.73
2022-12-08T06:25:44.589Z,950.69
2022-12-08T06:26:44.383Z,950.71
2022-12-08T06:27:44.448Z,950.69
2022-12-08T06:28:44.400Z,950.71
2022-12-08T06:29:44.597Z,950.73
2022-12-08T06:30:44.326Z,950.71
2022-12-08T06:31:44.342Z,950.69
2022-12-08T06:32:44.351Z,950.71
2022-12-08T06:33:44.628Z,950.71
2022-12-08T06:34:44.294Z,950.69
2022-12-08T06:35:44.331Z,950.69
2022-12-08T06:36:44.259Z,950.72
2022-12-08T06:37:44.308Z,950.65
2022-12-08T06:38:44.307Z,950.69
2022-12-08T06:39:44.239Z,950.71
2022-12-08T06:40:44.226Z,950.69
2022-12-08T06:41:44.470Z,950.68
2022-12-08T06:42:44.148Z,950.68
2022-12-08T06:43:44.221Z,950.63
2022-12-08T06:44:44.136Z,950.67
2022-12-08T06:45:44.216Z,950.70
2022-12-08T06:46:44.172Z,950.68
2022-12-08T06:47:44.531Z,950.73
2022-12-08T06:48:44.067Z,950.72
2022-12-08T06:49:45.040Z,950.67
2022-12-08T06:50:44.076Z,950.67
2022-12-08T06:51:44.232Z,950.66
2022-12-08T06:52:54.160Z,950.65
2022-12-08T06:53:45.204Z,950.68
2022-12-08T06:54:43.982Z,950.65
2022-12-08T06:55:58.910Z,950.70
2022-12-08T06:56:44.967Z,950.71
2022-12-08T06:57:44.707Z,950.69
2022-12-08T06:58:49.020Z,950.72
2022-12-08T06:59:45.070Z,950.71
2022-12-08T07:00:44.005Z,950.71
2022-12-08T07:01:43.968Z,950.72
2022-12-08T07:02:43.947Z,950.76
2022-12-08T07:03:43.875Z,950.75
2022-12-08T07:04:43.904Z,950.74
2022-12-08T07:05:44.183Z,950.74
2022-12-08T07:06:43.818Z,950.76
2022-12-08T07:07:44.187Z,950.81
2022-12-08T07:08:43.790Z,950.82
2022-12-08T07:09:43.989Z,950.81
2022-12-08T07:10:43.794Z,950.77
2022-12-08T07:11:43.863Z,950.79
2022-12-08T07:12:43.745Z,950.78
2022-12-08T07:13:43.988Z,950.81
2022-12-08T07:14:43.722Z,950.77
2022-12-08T07:15:44.056Z,950.80
2022-12-08T07:16:43.779Z,950.81
2022-12-08T07:17:44.548Z,950.77
2022-12-08T07:18:43.662Z,950.79
2022-12-08T07:19:43.901Z,950.81
2022-12-08T07:20:43.655Z,950.79
2022-12-08T07:21:43.681Z,950.77
2022-12-08T07:22:43.663Z,950.77
2022-12-08T07:23:44.007Z,950.79
2022-12-08T07:24:43.575Z,950.75
2022-12-08T07:25:44.042Z,950.73
2022-12-08T07:26:43.551Z,950.70
2022-12-08T07:27:43.645Z,950.77
2022-12-08T07:28:43.588Z,950.75
2022-12-08T07:29:44.094Z,950.74
2022-12-08T07:30:43.580Z,950.77
2022-12-08T07:31:43.537Z,950.73
2022-12-08T07:32:43.466Z,950.79
2022-12-08T07:33:43.475Z,950.76
2022-12-08T07:34:43.517Z,950.74
2022-12-08T07:35:49.033Z,950.76
2022-12-08T07:36:44.411Z,950.75
2022-12-08T07:37:43.508Z,950.77
2022-12-08T07:38:43.384Z,950.79
2022-12-08T07:39:43.414Z,950.76
2022-12-08T07:40:43.392Z,950.72
2022-12-08T07:41:43.431Z,950.74
2022-12-08T07:42:43.323Z,950.71
2022-12-08T07:43:43.500Z,950.65
2022-12-08T07:44:43.304Z,950.68
2022-12-08T07:45:43.372Z,950.67
2022-12-08T07:46:43.341Z,950.66
2022-12-08T07:47:43.613Z,950.67
2022-12-08T07:48:43.244Z,950.72
2022-12-08T07:49:43.307Z,950.68
2022-12-08T07:50:43.215Z,950.67
2022-12-08T07:51:43.236Z,950.58
2022-12-08T07:52:43.278Z,950.60
2022-12-08T07:53:47.227Z,950.60
2022-12-08T07:54:44.160Z,950.62
2022-12-08T07:55:43.272Z,950.61
2022-12-08T07:56:43.158Z,950.63
2022-12-08T07:57:43.284Z,950.60
2022-12-08T07:58:43.150Z,950.61
2022-12-08T07:59:43.488Z,950.60
2022-12-08T08:00:43.161Z,950.61
2022-12-08T08:01:45.500Z,950.57
2022-12-08T08:02:43.131Z,950.55
2022-12-08T08:03:43.276Z,950.53
2022-12-08T08:04:43.150Z,950.53
2022-12-08T08:05:43.186Z,950.54
2022-12-08T08:06:43.025Z,950.53
2022-12-08T08:07:43.410Z,950.56
2022-12-08T08:08:42.972Z,950.59
2022-12-08T08:09:43.472Z,950.54
2022-12-08T08:10:42.990Z,950.52
2022-12-08T08:11:55.934Z,950.54
2022-12-08T08:12:43.933Z,950.57
2022-12-08T08:13:42.893Z,950.52
2022-12-08T08:14:42.892Z,950.55
2022-12-08T08:15:42.998Z,950.56
2022-12-08T08:16:43.184Z,950.49
2022-12-08T08:17:43.236Z,950.49
2022-12-08T08:18:42.877Z,950.46
2022-12-08T08:19:43.400Z,950.50
2022-12-08T08:20:42.828Z,950.48
2022-12-08T08:21:45.954Z,950.48
2022-12-08T08:22:42.836Z,950.45
2022-12-08T08:23:43.010Z,950.50
2022-12-08T08:24:45.065Z,950.49
2022-12-08T08:25:42.872Z,950.50
2022-12-08T08:26:42.745Z,950.48
2022-12-08T08:27:42.975Z,950.49
2022-12-08T08:28:42.770Z,950.48
2022-12-08T08:29:42.987Z,950.50
2022-12-08T08:30:42.714Z,950.46
2022-12-08T08:31:42.738Z,950.50
2022-12-08T08:32:42.611Z,950.50
2022-12-08T08:33:43.101Z,950.50
2022-12-08T08:34:42.640Z,950.50
2022-12-08T08:35:42.764Z,950.51
2022-12-08T08:36:42.590Z,950.54
2022-12-08T08:37:48.601Z,950.55
2022-12-08T08:38:43.504Z,950.57
2022-12-08T08:39:42.816Z,950.56
2022-12-08T08:40:42.531Z,950.56
2022-12-08T08:41:42.873Z,950.60
2022-12-08T08:42:42.473Z,950.60
2022-12-08T08:43:43.220Z,950.57
2022-12-08T08:44:42.423Z,950.55
2022-12-08T08:45:42.632Z,950.54
2022-12-08T08:46:42.548Z,950.52
2022-12-08T08:47:43.317Z,950.52
2022-12-08T08:48:42.425Z,950.50
2022-12-08T08:49:42.434Z,950.54
2022-12-08T08:50:42.351Z,950.50
2022-12-08T08:51:42.638Z,950.50
2022-12-08T08:52:42.365Z,950.50
2022-12-08T08:53:43.075Z,950.61
2022-12-08T08:54:42.321Z,950.52
2022-12-08T08:55:42.627Z,950.56
2022-12-08T08:56:42.263Z,950.55
2022-12-08T08:57:42.327Z,950.51
2022-12-08T08:58:42.320Z,950.52
2022-12-08T08:59:42.921Z,950.51
2022-12-08T09:00:42.210Z,950.46
2022-12-08T09:01:43.017Z,950.42
2022-12-08T09:02:42.203Z,950.43
2022-12-08T09:03:42.928Z,950.42
2022-12-08T09:04:42.362Z,950.37
2022-12-08T09:05:42.626Z,950.37
2022-12-08T09:06:42.130Z,950.33
2022-12-08T09:07:43.325Z,950.34
2022-12-08T09:08:42.145Z,950.35
2022-12-08T09:09:42.676Z,950.33
2022-12-08T09:10:42.148Z,950.41
2022-12-08T09:11:42.564Z,950.32
2022-12-08T09:12:42.064Z,950.31
2022-12-08T09:13:42.387Z,950.33
2022-12-08T09:14:42.100Z,950.32
2022-12-08T09:15:42.838Z,950.29
2022-12-08T09:16:42.662Z,950.28
2022-12-08T09:17:43.378Z,950.26
2022-12-08T09:18:41.964Z,950.33
2022-12-08T09:19:42.414Z,950.30
2022-12-08T09:20:41.945Z,950.30
2022-12-08T09:21:43.109Z,950.27
2022-12-08T09:22:41.990Z,950.29
2022-12-08T09:23:42.550Z,950.29
2022-12-08T09:24:41.895Z,950.30
2022-12-08T09:25:42.772Z,950.35
2022-12-08T09:26:41.850Z,950.32
2022-12-08T09:27:42.884Z,950.33
2022-12-08T09:28:41.889Z,950.29
2022-12-08T09:29:42.411Z,950.31
2022-12-08T09:30:41.816Z,950.27
2022-12-08T09:31:42.450Z,950.27
2022-12-08T09:32:41.797Z,950.27
2022-12-08T09:33:42.322Z,950.28
2022-12-08T09:34:41.862Z,950.23
2022-12-08T09:35:43.061Z,950.26
2022-12-08T09:36:41.735Z,950.23
2022-12-08T09:37:42.681Z,950.28
2022-12-08T09:38:41.688Z,950.25
2022-12-08T09:39:42.198Z,950.24
2022-12-08T09:40:41.736Z,950.20
2022-12-08T09:41:46.509Z,950.21
2022-12-08T09:42:42.651Z,950.22
2022-12-08T09:43:42.798Z,950.18
2022-12-08T09:44:41.661Z,950.23
2022-12-08T09:45:42.800Z,950.23
2022-12-08T09:46:41.659Z,950.21
2022-12-08T09:47:43.319Z,950.17
2022-12-08T09:48:41.549Z,950.15
2022-12-08T09:49:42.245Z,950.14
2022-12-08T09:50:41.600Z,950.15
2022-12-08T09:51:42.886Z,950.13
2022-12-08T09:52:41.544Z,950.09
2022-12-08T09:53:42.634Z,950.09
2022-12-08T09:54:41.468Z,950.09
2022-12-08T09:55:42.324Z,950.10
2022-12-08T09:56:41.440Z,950.06
2022-12-08T09:57:42.084Z,950.07
2022-12-08T09:58:41.462Z,950.03
2022-12-08T09:59:42.141Z,949.98
2022-12-08T10:00:41.461Z,949.98
2022-12-08T10:01:42.600Z,949.94
2022-12-08T10:02:41.375Z,949.96
2022-12-08T10:03:41.834Z,949.90
2022-12-08T10:04:41.542Z,949.93
2022-12-08T10:05:42.478Z,949.90
2022-12-08T10:06:41.315Z,949.87
2022-12-08T10:07:43.531Z,949.88
2022-12-08T10:08:41.321Z,949.84
2022-12-08T10:09:42.233Z,949.83
2022-12-08T10:10:41.313Z,949.83
2022-12-08T10:11:41.996Z,949.80
2022-12-08T10:12:41.236Z,949.80
2022-12-08T10:13:41.242Z,949.82
2022-12-08T10:14:41.209Z,949.74
2022-12-08T10:15:41.314Z,949.78
2022-12-08T10:16:41.293Z,949.68
2022-12-08T10:17:42.840Z,949.73
2022-12-08T10:18:41.167Z,949.68
2022-12-08T10:19:42.788Z,949.66
2022-12-08T10:20:41.113Z,949.66
2022-12-08T10:21:41.126Z,949.64
2022-12-08T10:22:44.750Z,949.60
2022-12-08T10:23:41.173Z,949.56
2022-12-08T10:24:41.069Z,949.60
2022-12-08T10:25:41.077Z,949.57
2022-12-08T10:26:41.030Z,949.55
2022-12-08T10:27:41.057Z,949.56
2022-12-08T10:28:44.772Z,949.56
2022-12-08T10:29:41.217Z,949.57
2022-12-08T10:30:40.968Z,949.55
2022-12-08T10:31:41.026Z,949.54
2022-12-08T10:32:41.105Z,949.49
2022-12-08T10:33:40.977Z,949.52
2022-12-08T10:34:40.976Z,949.50
2022-12-08T10:35:41.006Z,949.52
2022-12-08T10:36:40.890Z,949.49
2022-12-08T10:37:40.915Z,949.44
2022-12-08T10:38:40.906Z,949.43
2022-12-08T10:39:40.887Z,949.45
2022-12-08T10:40:45.579Z,949.44
2022-12-08T10:41:42.674Z,949.43
2022-12-08T10:42:40.827Z,949.42
2022-12-08T10:43:40.803Z,949.38
2022-12-08T10:44:40.777Z,949.37
2022-12-08T10:45:40.797Z,949.41
2022-12-08T10:46:40.877Z,949.35
2022-12-08T10:47:44.800Z,949.32
2022-12-08T10:48:40.711Z,949.33
2022-12-08T10:49:40.745Z,949.32
2022-12-08T10:50:40.704Z,949.26
2022-12-08T10:51:40.714Z,949.30
2022-12-08T10:52:40.740Z,949.26
2022-12-08T10:53:40.901Z,949.27
2022-12-08T10:54:40.692Z,949.19
2022-12-08T10:55:40.651Z,949.23
2022-12-08T10:56:40.610Z,949.18
2022-12-08T10:57:40.704Z,949.22
2022-12-08T10:58:40.705Z,949.23
2022-12-08T10:59:40.590Z,949.23
2022-12-08T11:00:40.629Z,949.19
2022-12-08T11:01:40.725Z,949.21
2022-12-08T11:02:40.620Z,949.13
2022-12-08T11:03:40.683Z,949.16
2022-12-08T11:04:40.551Z,949.10
2022-12-08T11:05:40.525Z,949.09
2022-12-08T11:06:40.549Z,949.08
2022-12-08T11:07:40.588Z,949.11
2022-12-08T11:08:40.458Z,949.11
2022-12-08T11:09:40.540Z,949.07
2022-12-08T11:10:40.582Z,949.06
2022-12-08T11:11:40.441Z,949.00
2022-12-08T11:12:40.404Z,948.94
2022-12-08T11:13:40.416Z,948.97
2022-12-08T11:14:40.377Z,948.95
2022-12-08T11:15:40.525Z,948.91
2022-12-08T11:16:40.458Z,948.94
2022-12-08T11:17:40.372Z,948.92
2022-12-08T11:18:40.320Z,948.91
2022-12-08T11:19:40.346Z,948.92
2022-12-08T11:20:40.289Z,948.88
2022-12-08T11:21:40.499Z,948.82
2022-12-08T11:22:40.313Z,948.81
2022-12-08T11:23:40.405Z,948.80
2022-12-08T11:24:40.239Z,948.85
2022-12-08T11:25:40.250Z,948.85
2022-12-08T11:26:40.217Z,948.85
2022-12-08T11:27:40.388Z,948.82
2022-12-08T11:28:40.240Z,948.81
2022-12-08T11:29:40.257Z,948.85
2022-12-08T11:30:40.235Z,948.83
2022-12-08T11:31:40.230Z,948.82
2022-12-08T11:32:40.134Z,948.82
2022-12-08T11:33:40.290Z,948.79
2022-12-08T11:34:40.190Z,948.77
2022-12-08T11:35:40.164Z,948.75
2022-12-08T11:36:40.078Z,948.75
2022-12-08T11:37:40.078Z,948.73
2022-12-08T11:38:40.065Z,948.74
2022-12-08T11:39:40.219Z,948.79
2022-12-08T11:40:40.073Z,948.76
2022-12-08T11:41:40.135Z,948.77
2022-12-08T11:42:39.997Z,948.72
2022-12-08T11:43:40.031Z,948.69
2022-12-08T11:44:40.086Z,948.72
2022-12-08T11:45:40.179Z,948.69
2022-12-08T11:46:40.049Z,948.70
2022-12-08T11:47:39.998Z,948.70
2022-12-08T11:48:39.948Z,948.68
2022-12-08T11:49:40.004Z,948.69
2022-12-08T11:50:39.909Z,948.68
2022-12-08T11:51:40.625Z,948.67
2022-12-08T11:52:40.006Z,948.60
2022-12-08T11:53:39.898Z,948.60
2022-12-08T11:54:39.952Z,948.65
2022-12-08T11:55:42.642Z,948.63
2022-12-08T11:56:41.130Z,948.61
2022-12-08T11:57:39.869Z,948.60
2022-12-08T11:58:40.030Z,948.60
2022-12-08T11:59:39.792Z,948.61
2022-12-08T12:00:39.742Z,948.53
2022-12-08T12:01:42.645Z,948.50
2022-12-08T12:02:39.944Z,948.50
2022-12-08T12:03:39.832Z,948.50
2022-12-08T12:04:39.731Z,948.50
2022-12-08T12:06:08.823Z,948.51
2022-12-08T12:06:54.907Z,948.52
2022-12-08T12:07:40.876Z,948.53
2022-12-08T12:08:39.640Z,948.52
2022-12-08T12:09:39.655Z,948.50
2022-12-08T12:10:39.684Z,948.55
2022-12-08T12:11:39.629Z,948.52
2022-12-08T12:12:40.143Z,948.47
2022-12-08T12:13:39.681Z,948.45
2022-12-08T12:14:39.546Z,948.45
2022-12-08T12:15:39.564Z,948.40
2022-12-08T12:16:39.748Z,948.39
2022-12-08T12:17:39.536Z,948.38
2022-12-08T12:18:39.504Z,948.36
2022-12-08T12:19:39.596Z,948.36
2022-12-08T12:20:39.473Z,948.34
2022-12-08T12:21:39.483Z,948.36
2022-12-08T12:22:39.486Z,948.32
2022-12-08T12:23:39.450Z,948.29
2022-12-08T12:24:39.417Z,948.29
2022-12-08T12:25:39.510Z,948.27
2022-12-08T12:26:39.406Z,948.19
2022-12-08T12:27:39.400Z,948.18
2022-12-08T12:28:39.411Z,948.20